www.nordhorn-wetter.com
Wetterdaten: aktuell Mittwoch, 02.09.2026 20:01
Datum Zeit Temp. A. BodenT -5cm Temp +10cm Extra Temp Feuchte A. BlattFeuchte Bod.Feu -5cm Luftdruck Regen Wind Richtung Richtung Sonnenschein ET UV Solar Taupunkt Windböen Empfang
02.09.2026 20:01 18,2 °C 0,0 °C 20,0 °C 18,4 °C 78 % 0 lf 33 cb 1017,9 hPa 0,0 mm 1,8 km/h (1 Bft) SW 232 ° 0 min 0,000 mm 0,0 UV-I 11 W/m² 14,3 °C 3,2 km/h (1 Bft) 100,00 %
02.09.2026 19:01 18,7 °C 0,0 °C 20,0 °C 19,0 °C 74 % 0 lf 33 cb 1017,9 hPa 0,0 mm 6,7 km/h (2 Bft) S-SW 211 ° 0 min 0,000 mm 0,0 UV-I 65 W/m² 14,0 °C 12,9 km/h (3 Bft) 95,65 %
02.09.2026 18:01 19,0 °C 0,0 °C 20,6 °C 19,0 °C 73 % 0 lf 32 cb 1018,3 hPa 0,0 mm 3,1 km/h (1 Bft) W-SW 250 ° 0 min 0,000 mm 0,0 UV-I 65 W/m² 14,0 °C 4,8 km/h (1 Bft) 100,00 %
02.09.2026 17:01 20,1 °C 0,0 °C 20,6 °C 19,0 °C 77 % 0 lf 31 cb 1018,2 hPa 0,0 mm 3,2 km/h (1 Bft) W 281 ° 7 min 0,000 mm 0,7 UV-I 112 W/m² 15,9 °C 4,8 km/h (1 Bft) 95,65 %
02.09.2026 16:01 20,9 °C 0,0 °C 21,1 °C 19,0 °C 74 % 0 lf 31 cb 1018,2 hPa 0,0 mm 6,3 km/h (2 Bft) S-SW 211 ° 16 min 0,000 mm 1,2 UV-I 179 W/m² 16,1 °C 11,3 km/h (2 Bft) 100,00 %
02.09.2026 15:01 20,3 °C 0,0 °C 20,6 °C 18,4 °C 72 % 0 lf 30 cb 1018,3 hPa 0,0 mm 10,3 km/h (2 Bft) SW 234 ° 24 min 0,000 mm 0,5 UV-I 64 W/m² 15,1 °C 14,5 km/h (3 Bft) 91,30 %
02.09.2026 14:01 21,3 °C 0,0 °C 20,6 °C 17,9 °C 68 % 0 lf 29 cb 1018,2 hPa 0,0 mm 6,0 km/h (2 Bft) S-SO 167 ° 33 min 0,000 mm 1,5 UV-I 242 W/m² 15,1 °C 12,9 km/h (3 Bft) 91,67 %
02.09.2026 13:01 22,1 °C 0,0 °C 19,4 °C 17,3 °C 66 % 0 lf 29 cb 1018,5 hPa 0,0 mm 8,5 km/h (2 Bft) W-SW 239 ° 60 min 0,000 mm 4,0 UV-I 670 W/m² 15,4 °C 12,9 km/h (3 Bft) 100,00 %
02.09.2026 12:01 21,0 °C 0,0 °C 18,3 °C 16,2 °C 69 % 0 lf 29 cb 1018,6 hPa 0,0 mm 12,3 km/h (2 Bft) W 265 ° 60 min 0,000 mm 3,4 UV-I 606 W/m² 15,1 °C 20,9 km/h (4 Bft) 95,65 %
02.09.2026 11:01 19,0 °C 0,0 °C 17,2 °C 16,2 °C 74 % 0 lf 29 cb 1018,6 hPa 0,0 mm 11,3 km/h (2 Bft) S 184 ° 38 min 0,000 mm 2,5 UV-I 464 W/m² 14,3 °C 16,1 km/h (3 Bft) 95,65 %
02.09.2026 10:01 17,2 °C 0,0 °C 16,1 °C 15,7 °C 79 % 0 lf 29 cb 1018,4 hPa 0,0 mm 6,8 km/h (2 Bft) S-SW 213 ° 41 min 0,000 mm 1,4 UV-I 242 W/m² 13,5 °C 11,3 km/h (2 Bft) 100,00 %
02.09.2026 09:01 14,4 °C 0,0 °C 16,1 °C 15,7 °C 90 % 0 lf 29 cb 1018,3 hPa 0,0 mm 2,8 km/h (1 Bft) SO 138 ° 5 min 0,000 mm 0,8 UV-I 185 W/m² 12,8 °C 4,8 km/h (1 Bft) 100,00 %
02.09.2026 08:01 12,8 °C 0,0 °C 20,0 °C 19,0 °C 93 % 0 lf 33 cb 1018,3 hPa 0,0 mm 3,6 km/h (1 Bft) S-SO 150 ° 0 min 0,000 mm 0,0 UV-I 72 W/m² 11,7 °C 4,8 km/h (1 Bft) 95,83 %
02.09.2026 07:01 12,1 °C 0,0 °C 20,0 °C 19,0 °C 93 % 0 lf 33 cb 1018,2 hPa 0,0 mm 3,8 km/h (1 Bft) S-SW 196 ° 0 min 0,000 mm 0,0 UV-I 9 W/m² 11,0 °C 6,4 km/h (2 Bft) 87,50 %
02.09.2026 06:01 12,2 °C 0,0 °C 20,0 °C 19,0 °C 94 % 0 lf 33 cb 1018,2 hPa 0,0 mm 0,0 km/h (0 Bft) W-NW 301 ° 0 min 0,000 mm 0,0 UV-I 0 W/m² 11,3 °C 0,0 km/h (0 Bft) 95,83 %
02.09.2026 05:01 12,0 °C 0,0 °C 20,0 °C 19,0 °C 94 % 0 lf 33 cb 1018,6 hPa 0,0 mm 0,0 km/h (0 Bft) W-NW 301 ° 0 min 0,000 mm 0,0 UV-I 0 W/m² 11,1 °C 0,0 km/h (0 Bft) 100,00 %
02.09.2026 04:01 12,2 °C 0,0 °C 20,0 °C 19,0 °C 95 % 0 lf 33 cb 1018,7 hPa 0,0 mm 0,0 km/h (0 Bft) W-NW 301 ° 0 min 0,000 mm 0,0 UV-I 0 W/m² 11,4 °C 0,0 km/h (0 Bft) 95,83 %
02.09.2026 03:01 11,9 °C 0,0 °C 20,0 °C 19,0 °C 95 % 0 lf 33 cb 1018,7 hPa 0,0 mm 0,0 km/h (0 Bft) W-NW 301 ° 0 min 0,000 mm 0,0 UV-I 0 W/m² 11,1 °C 0,0 km/h (0 Bft) 91,30 %
02.09.2026 02:01 12,1 °C 0,0 °C 20,0 °C 19,0 °C 94 % 0 lf 33 cb 1018,7 hPa 0,0 mm 0,0 km/h (0 Bft) W-NW 301 ° 0 min 0,000 mm 0,0 UV-I 0 W/m² 11,2 °C 0,0 km/h (0 Bft) 100,00 %
02.09.2026 01:01 12,6 °C 0,0 °C 20,0 °C 19,0 °C 94 % 0 lf 33 cb 1018,8 hPa 0,4 mm 0,0 km/h (0 Bft) W-NW 301 ° 0 min 2,515 mm 0,0 UV-I 0 W/m² 11,7 °C 0,0 km/h (0 Bft) 100,00 %
02.09.2026 00:01 12,5 °C 0,0 °C 20,0 °C 19,0 °C 94 % 0 lf 33 cb 1019,5 hPa 0,0 mm 0,0 km/h (0 Bft) W-NW 301 ° 0 min 0,000 mm 0,0 UV-I 0 W/m² 11,6 °C 0,0 km/h (0 Bft) 100,00 %
02.09.2026 00:00 12,5 °C 0,0 °C 20,0 °C 19,0 °C 93 % 0 lf 33 cb 1019,5 hPa 0,0 mm 0,0 km/h (0 Bft) W-NW 301 ° 0 min 0,000 mm 0,0 UV-I 0 W/m² 11,4 °C 0,0 km/h (0 Bft) 91,30 %
_ Min-Zeit 02:41 20:01 10:09 10:57 13:12 20:01 14:16 19:31 - 16:48 - - - - - - 02:36 16:48 17:10
Minimum _ 11,7 °C 0,0 °C 16,1 °C 15,7 °C 64 % 0 lf 29 cb 1017,8 hPa - 0,0 km/h (0 Bft) - - - - - - 10,8 °C 0,0 km/h (0 Bft) 82,61 %
_ Max-Zeit 13:26 20:01 16:45 19:57 04:09 15:20 20:01 00:11 00:02 11:15 - - 16:20 00:02 13:35 13:31 15:49 11:15 20:01
Maximum _ 22,6 °C 0,0 °C 21,1 °C 19,0 °C 95 % 2 lf 33 cb 1019,6 hPa 0,4 mm 17,2 km/h
SW (3 Bft)
- - 1 min 2,515 mm 4,2 UV-I 851 W/m² 16,7 °C 29,0 km/h
S-SW (5 Bft)
100,00 %
Durchschnitt _ 16,4 °C 0,0 °C 19,6 °C 18,3 °C 83 % 0 lf 31 cb 1018,4 hPa #0,4 mm 4,2 km/h (1 Bft) W-NW - #4:44 h #2,515 mm 2,0 UV-I 260 W/m² 13,3 °C 6,8 km/h (2 Bft) 96,57 %
© 2006-2026 Nordhorn-Wetter.com